sensor_id;sensor_type;location;lat;lon;timestamp;P1;durP1;ratioP1;P2;durP2;ratioP2
25535;SDS011;13431;51.352;6.412;2023-08-01T00:01:16;0.90;;;0.90;;
25535;SDS011;13431;51.352;6.412;2023-08-01T00:03:43;1.00;;;1.00;;
25535;SDS011;13431;51.352;6.412;2023-08-01T00:06:10;0.90;;;0.90;;
25535;SDS011;13431;51.352;6.412;2023-08-01T00:08:38;0.95;;;0.90;;
25535;SDS011;13431;51.352;6.412;2023-08-01T00:11:05;0.80;;;0.80;;
25535;SDS011;13431;51.352;6.412;2023-08-01T00:13:32;1.20;;;0.90;;
25535;SDS011;13431;51.352;6.412;2023-08-01T00:16:00;1.13;;;1.02;;
25535;SDS011;13431;51.352;6.412;2023-08-01T00:18:34;0.90;;;0.85;;
25535;SDS011;13431;51.352;6.412;2023-08-01T00:21:02;0.85;;;0.80;;
25535;SDS011;13431;51.352;6.412;2023-08-01T00:23:31;0.77;;;0.77;;
25535;SDS011;13431;51.352;6.412;2023-08-01T00:25:58;0.98;;;0.93;;
25535;SDS011;13431;51.352;6.412;2023-08-01T00:28:26;1.75;;;1.00;;
25535;SDS011;13431;51.352;6.412;2023-08-01T00:31:01;0.85;;;0.85;;
25535;SDS011;13431;51.352;6.412;2023-08-01T00:33:29;0.80;;;0.80;;
25535;SDS011;13431;51.352;6.412;2023-08-01T00:35:57;1.65;;;0.98;;
25535;SDS011;13431;51.352;6.412;2023-08-01T00:38:24;0.90;;;0.90;;
25535;SDS011;13431;51.352;6.412;2023-08-01T00:40:51;1.85;;;0.90;;
25535;SDS011;13431;51.352;6.412;2023-08-01T00:43:19;0.70;;;0.70;;
25535;SDS011;13431;51.352;6.412;2023-08-01T00:45:46;0.80;;;0.80;;
25535;SDS011;13431;51.352;6.412;2023-08-01T00:48:14;1.08;;;1.08;;
25535;SDS011;13431;51.352;6.412;2023-08-01T00:50:43;0.82;;;0.82;;
25535;SDS011;13431;51.352;6.412;2023-08-01T00:53:10;1.10;;;0.98;;
25535;SDS011;13431;51.352;6.412;2023-08-01T00:55:39;0.80;;;0.80;;
25535;SDS011;13431;51.352;6.412;2023-08-01T00:58:07;0.90;;;0.90;;
25535;SDS011;13431;51.352;6.412;2023-08-01T01:00:34;0.85;;;0.85;;
25535;SDS011;13431;51.352;6.412;2023-08-01T01:03:02;1.77;;;0.90;;
25535;SDS011;13431;51.352;6.412;2023-08-01T01:05:31;1.70;;;1.00;;
25535;SDS011;13431;51.352;6.412;2023-08-01T01:08:02;0.75;;;0.75;;
25535;SDS011;13431;51.352;6.412;2023-08-01T01:10:30;0.98;;;0.98;;
25535;SDS011;13431;51.352;6.412;2023-08-01T01:12:59;1.05;;;0.90;;
25535;SDS011;13431;51.352;6.412;2023-08-01T01:15:26;1.10;;;0.77;;
25535;SDS011;13431;51.352;6.412;2023-08-01T01:17:54;1.20;;;0.80;;
25535;SDS011;13431;51.352;6.412;2023-08-01T01:20:24;0.82;;;0.80;;
25535;SDS011;13431;51.352;6.412;2023-08-01T01:22:52;1.42;;;0.90;;
25535;SDS011;13431;51.352;6.412;2023-08-01T01:25:21;1.70;;;0.90;;
25535;SDS011;13431;51.352;6.412;2023-08-01T01:27:51;0.70;;;0.70;;
25535;SDS011;13431;51.352;6.412;2023-08-01T01:30:20;0.93;;;0.80;;
25535;SDS011;13431;51.352;6.412;2023-08-01T01:32:49;0.88;;;0.88;;
25535;SDS011;13431;51.352;6.412;2023-08-01T01:35:16;1.08;;;1.08;;
25535;SDS011;13431;51.352;6.412;2023-08-01T01:37:44;0.98;;;0.93;;
25535;SDS011;13431;51.352;6.412;2023-08-01T01:40:11;0.98;;;0.85;;
25535;SDS011;13431;51.352;6.412;2023-08-01T01:42:39;0.70;;;0.70;;
25535;SDS011;13431;51.352;6.412;2023-08-01T01:45:06;1.25;;;0.98;;
25535;SDS011;13431;51.352;6.412;2023-08-01T01:47:33;1.13;;;0.90;;
25535;SDS011;13431;51.352;6.412;2023-08-01T01:50:01;0.95;;;0.95;;
25535;SDS011;13431;51.352;6.412;2023-08-01T01:52:28;0.80;;;0.80;;
25535;SDS011;13431;51.352;6.412;2023-08-01T01:54:56;0.93;;;0.93;;
25535;SDS011;13431;51.352;6.412;2023-08-01T01:57:23;1.83;;;0.70;;
25535;SDS011;13431;51.352;6.412;2023-08-01T01:59:50;0.80;;;0.80;;
25535;SDS011;13431;51.352;6.412;2023-08-01T02:02:18;1.77;;;1.08;;
25535;SDS011;13431;51.352;6.412;2023-08-01T02:04:49;1.40;;;1.30;;
25535;SDS011;13431;51.352;6.412;2023-08-01T02:07:17;1.00;;;1.00;;
25535;SDS011;13431;51.352;6.412;2023-08-01T02:09:44;2.40;;;1.10;;
25535;SDS011;13431;51.352;6.412;2023-08-01T02:12:13;1.10;;;1.10;;
25535;SDS011;13431;51.352;6.412;2023-08-01T02:14:43;1.35;;;1.10;;
25535;SDS011;13431;51.352;6.412;2023-08-01T02:17:10;1.23;;;1.10;;
25535;SDS011;13431;51.352;6.412;2023-08-01T02:19:37;1.00;;;1.00;;
25535;SDS011;13431;51.352;6.412;2023-08-01T02:22:05;1.35;;;1.20;;
25535;SDS011;13431;51.352;6.412;2023-08-01T02:24:32;1.60;;;1.13;;
25535;SDS011;13431;51.352;6.412;2023-08-01T02:26:59;1.30;;;1.30;;
25535;SDS011;13431;51.352;6.412;2023-08-01T02:29:27;1.00;;;1.00;;
25535;SDS011;13431;51.352;6.412;2023-08-01T02:31:54;0.98;;;0.98;;
25535;SDS011;13431;51.352;6.412;2023-08-01T02:34:22;1.63;;;1.30;;
25535;SDS011;13431;51.352;6.412;2023-08-01T02:36:50;1.40;;;1.10;;
25535;SDS011;13431;51.352;6.412;2023-08-01T02:39:17;1.02;;;1.00;;
25535;SDS011;13431;51.352;6.412;2023-08-01T02:41:44;1.45;;;1.15;;
25535;SDS011;13431;51.352;6.412;2023-08-01T02:44:12;1.10;;;1.10;;
25535;SDS011;13431;51.352;6.412;2023-08-01T02:46:39;1.67;;;1.45;;
25535;SDS011;13431;51.352;6.412;2023-08-01T02:49:07;1.20;;;1.10;;
25535;SDS011;13431;51.352;6.412;2023-08-01T02:51:35;1.38;;;1.10;;
25535;SDS011;13431;51.352;6.412;2023-08-01T02:54:02;1.30;;;1.20;;
25535;SDS011;13431;51.352;6.412;2023-08-01T02:56:29;1.98;;;1.27;;
25535;SDS011;13431;51.352;6.412;2023-08-01T02:58:56;1.40;;;1.30;;
25535;SDS011;13431;51.352;6.412;2023-08-01T03:01:24;1.92;;;1.48;;
25535;SDS011;13431;51.352;6.412;2023-08-01T03:03:51;1.50;;;1.35;;
25535;SDS011;13431;51.352;6.412;2023-08-01T03:06:18;1.20;;;1.10;;
25535;SDS011;13431;51.352;6.412;2023-08-01T03:08:46;2.00;;;1.83;;
25535;SDS011;13431;51.352;6.412;2023-08-01T03:11:14;1.50;;;1.40;;
25535;SDS011;13431;51.352;6.412;2023-08-01T03:13:41;1.67;;;1.58;;
25535;SDS011;13431;51.352;6.412;2023-08-01T03:16:09;1.40;;;1.30;;
25535;SDS011;13431;51.352;6.412;2023-08-01T03:18:37;1.42;;;1.33;;
25535;SDS011;13431;51.352;6.412;2023-08-01T03:21:04;1.50;;;1.40;;
25535;SDS011;13431;51.352;6.412;2023-08-01T03:23:31;1.60;;;1.50;;
25535;SDS011;13431;51.352;6.412;2023-08-01T03:25:59;1.40;;;1.30;;
25535;SDS011;13431;51.352;6.412;2023-08-01T03:28:26;1.60;;;1.50;;
25535;SDS011;13431;51.352;6.412;2023-08-01T03:30:54;1.60;;;1.50;;
25535;SDS011;13431;51.352;6.412;2023-08-01T03:33:21;2.28;;;1.80;;
25535;SDS011;13431;51.352;6.412;2023-08-01T03:35:49;2.03;;;1.80;;
25535;SDS011;13431;51.352;6.412;2023-08-01T03:38:16;1.77;;;1.60;;
25535;SDS011;13431;51.352;6.412;2023-08-01T03:40:43;2.03;;;1.70;;
25535;SDS011;13431;51.352;6.412;2023-08-01T03:43:10;2.15;;;1.95;;
25535;SDS011;13431;51.352;6.412;2023-08-01T03:45:39;1.90;;;1.80;;
25535;SDS011;13431;51.352;6.412;2023-08-01T03:48:06;2.03;;;1.83;;
25535;SDS011;13431;51.352;6.412;2023-08-01T03:50:34;1.95;;;1.85;;
25535;SDS011;13431;51.352;6.412;2023-08-01T03:53:01;3.10;;;2.00;;
25535;SDS011;13431;51.352;6.412;2023-08-01T03:55:29;3.22;;;2.10;;
25535;SDS011;13431;51.352;6.412;2023-08-01T03:57:56;2.55;;;1.90;;
25535;SDS011;13431;51.352;6.412;2023-08-01T04:00:23;2.60;;;2.20;;
25535;SDS011;13431;51.352;6.412;2023-08-01T04:02:51;1.90;;;1.80;;
25535;SDS011;13431;51.352;6.412;2023-08-01T04:05:18;1.90;;;1.80;;
25535;SDS011;13431;51.352;6.412;2023-08-01T04:07:45;2.85;;;1.90;;
25535;SDS011;13431;51.352;6.412;2023-08-01T04:10:13;2.33;;;2.17;;
25535;SDS011;13431;51.352;6.412;2023-08-01T04:12:40;2.40;;;2.20;;
25535;SDS011;13431;51.352;6.412;2023-08-01T04:15:09;2.13;;;1.90;;
25535;SDS011;13431;51.352;6.412;2023-08-01T04:17:36;4.28;;;2.38;;
25535;SDS011;13431;51.352;6.412;2023-08-01T04:20:04;2.28;;;2.08;;
25535;SDS011;13431;51.352;6.412;2023-08-01T04:22:32;4.03;;;2.63;;
25535;SDS011;13431;51.352;6.412;2023-08-01T04:25:00;3.22;;;2.70;;
25535;SDS011;13431;51.352;6.412;2023-08-01T04:27:28;2.70;;;2.50;;
25535;SDS011;13431;51.352;6.412;2023-08-01T04:29:55;3.55;;;2.95;;
25535;SDS011;13431;51.352;6.412;2023-08-01T04:32:23;3.13;;;2.80;;
25535;SDS011;13431;51.352;6.412;2023-08-01T04:34:50;2.60;;;2.40;;
25535;SDS011;13431;51.352;6.412;2023-08-01T04:37:17;2.72;;;2.53;;
25535;SDS011;13431;51.352;6.412;2023-08-01T04:39:47;3.00;;;2.70;;
25535;SDS011;13431;51.352;6.412;2023-08-01T04:42:14;3.58;;;2.75;;
25535;SDS011;13431;51.352;6.412;2023-08-01T04:44:42;3.40;;;3.05;;
25535;SDS011;13431;51.352;6.412;2023-08-01T04:47:09;4.47;;;2.80;;
25535;SDS011;13431;51.352;6.412;2023-08-01T04:49:37;3.47;;;3.17;;
25535;SDS011;13431;51.352;6.412;2023-08-01T04:52:04;3.45;;;2.88;;
25535;SDS011;13431;51.352;6.412;2023-08-01T04:54:34;3.88;;;3.15;;
25535;SDS011;13431;51.352;6.412;2023-08-01T04:57:01;3.40;;;3.20;;
25535;SDS011;13431;51.352;6.412;2023-08-01T04:59:29;3.55;;;3.28;;
25535;SDS011;13431;51.352;6.412;2023-08-01T05:01:57;3.60;;;3.33;;
25535;SDS011;13431;51.352;6.412;2023-08-01T05:04:24;5.32;;;3.97;;
25535;SDS011;13431;51.352;6.412;2023-08-01T05:06:52;3.47;;;3.17;;
25535;SDS011;13431;51.352;6.412;2023-08-01T05:09:19;4.18;;;3.78;;
25535;SDS011;13431;51.352;6.412;2023-08-01T05:11:46;3.95;;;3.55;;
25535;SDS011;13431;51.352;6.412;2023-08-01T05:14:13;3.67;;;3.38;;
25535;SDS011;13431;51.352;6.412;2023-08-01T05:16:41;3.75;;;3.45;;
25535;SDS011;13431;51.352;6.412;2023-08-01T05:19:08;4.07;;;3.55;;
25535;SDS011;13431;51.352;6.412;2023-08-01T05:21:36;4.38;;;3.97;;
25535;SDS011;13431;51.352;6.412;2023-08-01T05:24:03;5.88;;;4.03;;
25535;SDS011;13431;51.352;6.412;2023-08-01T05:26:30;5.60;;;4.32;;
25535;SDS011;13431;51.352;6.412;2023-08-01T05:28:58;4.47;;;4.07;;
25535;SDS011;13431;51.352;6.412;2023-08-01T05:31:25;4.45;;;4.03;;
25535;SDS011;13431;51.352;6.412;2023-08-01T05:33:52;4.57;;;4.15;;
25535;SDS011;13431;51.352;6.412;2023-08-01T05:36:19;5.13;;;4.00;;
25535;SDS011;13431;51.352;6.412;2023-08-01T05:38:47;4.13;;;3.72;;
25535;SDS011;13431;51.352;6.412;2023-08-01T05:41:14;5.57;;;4.15;;
25535;SDS011;13431;51.352;6.412;2023-08-01T05:43:41;5.90;;;3.92;;
25535;SDS011;13431;51.352;6.412;2023-08-01T05:46:09;4.32;;;3.92;;
25535;SDS011;13431;51.352;6.412;2023-08-01T05:48:37;4.22;;;3.92;;
25535;SDS011;13431;51.352;6.412;2023-08-01T05:51:04;4.85;;;4.15;;
25535;SDS011;13431;51.352;6.412;2023-08-01T05:53:31;4.25;;;3.85;;
25535;SDS011;13431;51.352;6.412;2023-08-01T05:55:59;4.85;;;4.40;;
25535;SDS011;13431;51.352;6.412;2023-08-01T05:58:26;5.72;;;4.82;;
25535;SDS011;13431;51.352;6.412;2023-08-01T06:00:55;5.20;;;4.13;;
25535;SDS011;13431;51.352;6.412;2023-08-01T06:03:23;5.07;;;4.68;;
25535;SDS011;13431;51.352;6.412;2023-08-01T06:05:50;5.20;;;4.70;;
25535;SDS011;13431;51.352;6.412;2023-08-01T06:08:17;4.85;;;4.45;;
25535;SDS011;13431;51.352;6.412;2023-08-01T06:10:45;4.72;;;4.30;;
25535;SDS011;13431;51.352;6.412;2023-08-01T06:13:12;5.18;;;4.47;;
25535;SDS011;13431;51.352;6.412;2023-08-01T06:15:40;4.75;;;4.15;;
25535;SDS011;13431;51.352;6.412;2023-08-01T06:18:07;4.07;;;3.67;;
25535;SDS011;13431;51.352;6.412;2023-08-01T06:20:34;4.72;;;4.00;;
25535;SDS011;13431;51.352;6.412;2023-08-01T06:23:02;5.03;;;4.43;;
25535;SDS011;13431;51.352;6.412;2023-08-01T06:25:29;4.78;;;4.38;;
25535;SDS011;13431;51.352;6.412;2023-08-01T06:27:56;5.05;;;3.90;;
25535;SDS011;13431;51.352;6.412;2023-08-01T06:30:24;4.95;;;4.45;;
25535;SDS011;13431;51.352;6.412;2023-08-01T06:32:51;5.72;;;4.70;;
25535;SDS011;13431;51.352;6.412;2023-08-01T06:35:18;4.78;;;4.38;;
25535;SDS011;13431;51.352;6.412;2023-08-01T06:37:47;4.85;;;4.32;;
25535;SDS011;13431;51.352;6.412;2023-08-01T06:40:15;4.85;;;4.45;;
25535;SDS011;13431;51.352;6.412;2023-08-01T06:42:42;5.53;;;4.30;;
25535;SDS011;13431;51.352;6.412;2023-08-01T06:45:09;4.97;;;4.47;;
25535;SDS011;13431;51.352;6.412;2023-08-01T06:47:37;5.20;;;4.32;;
25535;SDS011;13431;51.352;6.412;2023-08-01T06:50:05;5.75;;;4.18;;
25535;SDS011;13431;51.352;6.412;2023-08-01T06:52:32;7.32;;;4.05;;
25535;SDS011;13431;51.352;6.412;2023-08-01T06:55:00;7.78;;;4.65;;
25535;SDS011;13431;51.352;6.412;2023-08-01T06:57:28;7.97;;;4.35;;
25535;SDS011;13431;51.352;6.412;2023-08-01T06:59:55;5.65;;;5.10;;
25535;SDS011;13431;51.352;6.412;2023-08-01T07:02:23;5.75;;;4.10;;
25535;SDS011;13431;51.352;6.412;2023-08-01T07:04:53;5.65;;;4.60;;
25535;SDS011;13431;51.352;6.412;2023-08-01T07:07:20;6.22;;;4.82;;
25535;SDS011;13431;51.352;6.412;2023-08-01T07:09:47;5.05;;;4.53;;
25535;SDS011;13431;51.352;6.412;2023-08-01T07:12:15;6.88;;;5.10;;
25535;SDS011;13431;51.352;6.412;2023-08-01T07:14:42;8.65;;;4.72;;
25535;SDS011;13431;51.352;6.412;2023-08-01T07:17:09;6.25;;;5.10;;
25535;SDS011;13431;51.352;6.412;2023-08-01T07:19:37;6.50;;;4.88;;
25535;SDS011;13431;51.352;6.412;2023-08-01T07:22:04;6.60;;;4.90;;
25535;SDS011;13431;51.352;6.412;2023-08-01T07:24:31;5.05;;;4.55;;
25535;SDS011;13431;51.352;6.412;2023-08-01T07:26:59;5.40;;;4.90;;
25535;SDS011;13431;51.352;6.412;2023-08-01T07:29:26;6.32;;;5.05;;
25535;SDS011;13431;51.352;6.412;2023-08-01T07:31:54;6.35;;;4.95;;
25535;SDS011;13431;51.352;6.412;2023-08-01T07:34:21;6.60;;;5.85;;
25535;SDS011;13431;51.352;6.412;2023-08-01T07:36:49;8.55;;;5.70;;
25535;SDS011;13431;51.352;6.412;2023-08-01T07:39:17;9.85;;;5.80;;
25535;SDS011;13431;51.352;6.412;2023-08-01T07:41:44;6.32;;;5.28;;
25535;SDS011;13431;51.352;6.412;2023-08-01T07:44:11;6.68;;;5.47;;
25535;SDS011;13431;51.352;6.412;2023-08-01T07:46:39;12.13;;;5.45;;
25535;SDS011;13431;51.352;6.412;2023-08-01T07:49:06;7.95;;;5.80;;
25535;SDS011;13431;51.352;6.412;2023-08-01T07:51:34;8.32;;;5.43;;
25535;SDS011;13431;51.352;6.412;2023-08-01T07:54:01;10.93;;;6.15;;
25535;SDS011;13431;51.352;6.412;2023-08-01T07:56:29;7.53;;;5.88;;
25535;SDS011;13431;51.352;6.412;2023-08-01T07:58:56;8.82;;;5.90;;
25535;SDS011;13431;51.352;6.412;2023-08-01T08:01:23;9.30;;;5.97;;
25535;SDS011;13431;51.352;6.412;2023-08-01T08:03:51;6.85;;;4.93;;
25535;SDS011;13431;51.352;6.412;2023-08-01T08:06:18;5.95;;;5.22;;
25535;SDS011;13431;51.352;6.412;2023-08-01T08:08:47;7.57;;;6.03;;
25535;SDS011;13431;51.352;6.412;2023-08-01T08:11:15;8.18;;;5.43;;
25535;SDS011;13431;51.352;6.412;2023-08-01T08:13:43;8.25;;;5.55;;
25535;SDS011;13431;51.352;6.412;2023-08-01T08:16:10;7.05;;;5.38;;
25535;SDS011;13431;51.352;6.412;2023-08-01T08:18:37;7.28;;;5.22;;
25535;SDS011;13431;51.352;6.412;2023-08-01T08:21:05;8.75;;;5.43;;
25535;SDS011;13431;51.352;6.412;2023-08-01T08:23:32;7.60;;;5.32;;
25535;SDS011;13431;51.352;6.412;2023-08-01T08:26:00;6.63;;;4.70;;
25535;SDS011;13431;51.352;6.412;2023-08-01T08:28:28;8.10;;;5.30;;
25535;SDS011;13431;51.352;6.412;2023-08-01T08:30:57;6.90;;;4.50;;
25535;SDS011;13431;51.352;6.412;2023-08-01T08:33:25;9.93;;;4.88;;
25535;SDS011;13431;51.352;6.412;2023-08-01T08:35:52;7.70;;;5.15;;
25535;SDS011;13431;51.352;6.412;2023-08-01T08:38:20;7.18;;;4.93;;
25535;SDS011;13431;51.352;6.412;2023-08-01T08:43:37;5.47;;;4.05;;
25535;SDS011;13431;51.352;6.412;2023-08-01T08:46:06;6.50;;;4.20;;
25535;SDS011;13431;51.352;6.412;2023-08-01T08:48:35;6.82;;;4.13;;
25535;SDS011;13431;51.352;6.412;2023-08-01T08:51:05;5.38;;;4.38;;
25535;SDS011;13431;51.352;6.412;2023-08-01T08:53:33;5.88;;;4.30;;
25535;SDS011;13431;51.352;6.412;2023-08-01T08:56:02;6.93;;;4.22;;
25535;SDS011;13431;51.352;6.412;2023-08-01T08:58:29;8.82;;;4.13;;
25535;SDS011;13431;51.352;6.412;2023-08-01T09:01:00;5.18;;;3.78;;
25535;SDS011;13431;51.352;6.412;2023-08-01T09:03:28;5.05;;;3.72;;
25535;SDS011;13431;51.352;6.412;2023-08-01T09:06:09;6.55;;;3.85;;
25535;SDS011;13431;51.352;6.412;2023-08-01T09:08:46;8.65;;;4.38;;
25535;SDS011;13431;51.352;6.412;2023-08-01T09:11:23;7.93;;;3.67;;
25535;SDS011;13431;51.352;6.412;2023-08-01T09:13:51;8.18;;;4.43;;
25535;SDS011;13431;51.352;6.412;2023-08-01T09:16:19;7.80;;;4.40;;
25535;SDS011;13431;51.352;6.412;2023-08-01T09:18:50;8.38;;;4.00;;
25535;SDS011;13431;51.352;6.412;2023-08-01T09:21:19;6.05;;;4.15;;
25535;SDS011;13431;51.352;6.412;2023-08-01T09:23:47;6.53;;;4.55;;
25535;SDS011;13431;51.352;6.412;2023-08-01T09:26:15;6.53;;;4.75;;
25535;SDS011;13431;51.352;6.412;2023-08-01T09:28:43;7.47;;;4.20;;
25535;SDS011;13431;51.352;6.412;2023-08-01T09:31:11;7.28;;;4.28;;
25535;SDS011;13431;51.352;6.412;2023-08-01T09:33:41;6.40;;;3.95;;
25535;SDS011;13431;51.352;6.412;2023-08-01T09:36:09;6.32;;;4.38;;
25535;SDS011;13431;51.352;6.412;2023-08-01T09:38:37;7.15;;;4.47;;
25535;SDS011;13431;51.352;6.412;2023-08-01T09:41:04;6.28;;;4.35;;
25535;SDS011;13431;51.352;6.412;2023-08-01T09:43:35;5.15;;;4.13;;
25535;SDS011;13431;51.352;6.412;2023-08-01T09:46:06;7.25;;;4.57;;
25535;SDS011;13431;51.352;6.412;2023-08-01T09:48:33;7.05;;;4.28;;
25535;SDS011;13431;51.352;6.412;2023-08-01T09:53:36;4.90;;;4.22;;
25535;SDS011;13431;51.352;6.412;2023-08-01T09:56:15;6.22;;;4.43;;
25535;SDS011;13431;51.352;6.412;2023-08-01T09:58:47;4.97;;;3.80;;
25535;SDS011;13431;51.352;6.412;2023-08-01T10:01:16;8.07;;;4.53;;
25535;SDS011;13431;51.352;6.412;2023-08-01T10:03:46;7.28;;;4.43;;
25535;SDS011;13431;51.352;6.412;2023-08-01T10:06:20;4.57;;;3.80;;
25535;SDS011;13431;51.352;6.412;2023-08-01T10:08:49;8.88;;;4.78;;
25535;SDS011;13431;51.352;6.412;2023-08-01T10:11:19;5.95;;;4.25;;
25535;SDS011;13431;51.352;6.412;2023-08-01T10:13:48;4.95;;;4.15;;
25535;SDS011;13431;51.352;6.412;2023-08-01T10:16:15;7.50;;;4.10;;
25535;SDS011;13431;51.352;6.412;2023-08-01T10:18:43;6.50;;;4.47;;
25535;SDS011;13431;51.352;6.412;2023-08-01T10:21:11;7.25;;;3.80;;
25535;SDS011;13431;51.352;6.412;2023-08-01T10:23:41;6.97;;;5.18;;
25535;SDS011;13431;51.352;6.412;2023-08-01T10:26:10;6.20;;;4.18;;
25535;SDS011;13431;51.352;6.412;2023-08-01T10:28:39;8.10;;;4.50;;
25535;SDS011;13431;51.352;6.412;2023-08-01T10:31:08;8.15;;;4.03;;
25535;SDS011;13431;51.352;6.412;2023-08-01T10:33:37;8.25;;;4.78;;
25535;SDS011;13431;51.352;6.412;2023-08-01T10:36:21;4.85;;;3.92;;
25535;SDS011;13431;51.352;6.412;2023-08-01T10:38:51;4.18;;;3.83;;
25535;SDS011;13431;51.352;6.412;2023-08-01T10:41:25;6.82;;;4.30;;
25535;SDS011;13431;51.352;6.412;2023-08-01T10:49:36;4.10;;;3.80;;
25535;SDS011;13431;51.352;6.412;2023-08-01T10:54:44;6.63;;;3.63;;
25535;SDS011;13431;51.352;6.412;2023-08-01T10:57:15;6.68;;;4.43;;
25535;SDS011;13431;51.352;6.412;2023-08-01T11:02:19;5.15;;;3.92;;
25535;SDS011;13431;51.352;6.412;2023-08-01T11:05:03;6.55;;;3.72;;
25535;SDS011;13431;51.352;6.412;2023-08-01T11:07:33;4.85;;;3.53;;
25535;SDS011;13431;51.352;6.412;2023-08-01T11:10:08;8.73;;;4.40;;
25535;SDS011;13431;51.352;6.412;2023-08-01T11:12:41;8.18;;;3.65;;
25535;SDS011;13431;51.352;6.412;2023-08-01T11:15:12;5.70;;;4.03;;
25535;SDS011;13431;51.352;6.412;2023-08-01T11:17:41;5.32;;;3.30;;
25535;SDS011;13431;51.352;6.412;2023-08-01T11:20:10;4.72;;;3.42;;
25535;SDS011;13431;51.352;6.412;2023-08-01T11:22:48;4.07;;;3.03;;
25535;SDS011;13431;51.352;6.412;2023-08-01T11:25:16;7.80;;;4.25;;
25535;SDS011;13431;51.352;6.412;2023-08-01T11:27:44;5.05;;;3.70;;
25535;SDS011;13431;51.352;6.412;2023-08-01T11:30:11;5.43;;;3.42;;
25535;SDS011;13431;51.352;6.412;2023-08-01T11:32:39;4.72;;;3.00;;
25535;SDS011;13431;51.352;6.412;2023-08-01T11:35:06;4.28;;;2.58;;
25535;SDS011;13431;51.352;6.412;2023-08-01T11:37:34;4.03;;;2.65;;
25535;SDS011;13431;51.352;6.412;2023-08-01T11:40:02;4.68;;;2.47;;
25535;SDS011;13431;51.352;6.412;2023-08-01T11:42:31;5.43;;;2.75;;
25535;SDS011;13431;51.352;6.412;2023-08-01T11:45:07;5.07;;;2.22;;
25535;SDS011;13431;51.352;6.412;2023-08-01T11:47:35;3.78;;;2.58;;
25535;SDS011;13431;51.352;6.412;2023-08-01T11:50:04;3.08;;;2.42;;
25535;SDS011;13431;51.352;6.412;2023-08-01T11:52:33;3.38;;;2.45;;
25535;SDS011;13431;51.352;6.412;2023-08-01T11:55:01;4.47;;;2.22;;
25535;SDS011;13431;51.352;6.412;2023-08-01T11:57:29;2.65;;;2.25;;
25535;SDS011;13431;51.352;6.412;2023-08-01T11:59:56;5.80;;;2.10;;
25535;SDS011;13431;51.352;6.412;2023-08-01T12:02:24;3.10;;;2.25;;
25535;SDS011;13431;51.352;6.412;2023-08-01T12:04:53;6.70;;;2.65;;
25535;SDS011;13431;51.352;6.412;2023-08-01T12:07:21;4.63;;;2.28;;
25535;SDS011;13431;51.352;6.412;2023-08-01T12:09:54;4.05;;;2.90;;
25535;SDS011;13431;51.352;6.412;2023-08-01T12:12:23;4.28;;;2.63;;
25535;SDS011;13431;51.352;6.412;2023-08-01T12:14:53;3.60;;;2.10;;
25535;SDS011;13431;51.352;6.412;2023-08-01T12:17:21;3.47;;;2.30;;
25535;SDS011;13431;51.352;6.412;2023-08-01T12:19:49;4.60;;;2.53;;
25535;SDS011;13431;51.352;6.412;2023-08-01T12:22:17;4.85;;;2.50;;
25535;SDS011;13431;51.352;6.412;2023-08-01T12:24:44;3.17;;;2.40;;
25535;SDS011;13431;51.352;6.412;2023-08-01T12:27:11;4.68;;;2.65;;
25535;SDS011;13431;51.352;6.412;2023-08-01T12:29:39;6.10;;;2.47;;
25535;SDS011;13431;51.352;6.412;2023-08-01T12:32:06;5.78;;;2.38;;
25535;SDS011;13431;51.352;6.412;2023-08-01T12:34:34;7.15;;;2.47;;
25535;SDS011;13431;51.352;6.412;2023-08-01T12:37:01;3.85;;;2.40;;
25535;SDS011;13431;51.352;6.412;2023-08-01T12:39:29;4.38;;;2.45;;
25535;SDS011;13431;51.352;6.412;2023-08-01T12:41:56;5.63;;;2.25;;
25535;SDS011;13431;51.352;6.412;2023-08-01T12:44:24;4.28;;;2.50;;
25535;SDS011;13431;51.352;6.412;2023-08-01T12:46:51;5.57;;;2.13;;
25535;SDS011;13431;51.352;6.412;2023-08-01T12:49:18;10.65;;;2.42;;
25535;SDS011;13431;51.352;6.412;2023-08-01T12:51:46;15.80;;;4.72;;
25535;SDS011;13431;51.352;6.412;2023-08-01T12:54:17;87.68;;;19.00;;
25535;SDS011;13431;51.352;6.412;2023-08-01T12:56:44;49.30;;;13.70;;
25535;SDS011;13431;51.352;6.412;2023-08-01T12:59:12;48.00;;;13.85;;
25535;SDS011;13431;51.352;6.412;2023-08-01T13:01:39;31.42;;;10.35;;
25535;SDS011;13431;51.352;6.412;2023-08-01T13:04:07;37.97;;;10.98;;
25535;SDS011;13431;51.352;6.412;2023-08-01T13:06:34;40.17;;;11.55;;
25535;SDS011;13431;51.352;6.412;2023-08-01T13:09:02;40.75;;;10.27;;
25535;SDS011;13431;51.352;6.412;2023-08-01T13:11:30;24.60;;;7.22;;
25535;SDS011;13431;51.352;6.412;2023-08-01T13:13:57;20.33;;;8.05;;
25535;SDS011;13431;51.352;6.412;2023-08-01T13:16:24;23.42;;;7.70;;
25535;SDS011;13431;51.352;6.412;2023-08-01T13:18:51;28.80;;;8.05;;
25535;SDS011;13431;51.352;6.412;2023-08-01T13:21:19;21.38;;;6.68;;
25535;SDS011;13431;51.352;6.412;2023-08-01T13:23:49;21.00;;;7.93;;
25535;SDS011;13431;51.352;6.412;2023-08-01T13:26:16;32.20;;;9.68;;
25535;SDS011;13431;51.352;6.412;2023-08-01T13:28:44;19.58;;;6.45;;
25535;SDS011;13431;51.352;6.412;2023-08-01T13:31:11;17.35;;;7.10;;
25535;SDS011;13431;51.352;6.412;2023-08-01T13:33:38;17.40;;;6.70;;
25535;SDS011;13431;51.352;6.412;2023-08-01T13:36:06;16.27;;;6.13;;
25535;SDS011;13431;51.352;6.412;2023-08-01T13:38:33;16.23;;;5.75;;
25535;SDS011;13431;51.352;6.412;2023-08-01T13:41:01;15.05;;;5.90;;
25535;SDS011;13431;51.352;6.412;2023-08-01T13:43:28;13.52;;;5.53;;
25535;SDS011;13431;51.352;6.412;2023-08-01T13:45:56;16.85;;;6.10;;
25535;SDS011;13431;51.352;6.412;2023-08-01T13:48:23;19.55;;;6.57;;
25535;SDS011;13431;51.352;6.412;2023-08-01T13:50:50;10.73;;;4.13;;
25535;SDS011;13431;51.352;6.412;2023-08-01T13:53:18;12.77;;;4.80;;
25535;SDS011;13431;51.352;6.412;2023-08-01T13:55:45;12.00;;;4.53;;
25535;SDS011;13431;51.352;6.412;2023-08-01T13:58:12;10.15;;;4.15;;
25535;SDS011;13431;51.352;6.412;2023-08-01T14:00:40;11.70;;;5.13;;
25535;SDS011;13431;51.352;6.412;2023-08-01T14:03:07;13.57;;;6.00;;
25535;SDS011;13431;51.352;6.412;2023-08-01T14:05:34;12.30;;;5.28;;
25535;SDS011;13431;51.352;6.412;2023-08-01T14:08:02;11.75;;;5.75;;
25535;SDS011;13431;51.352;6.412;2023-08-01T14:10:29;9.30;;;4.57;;
25535;SDS011;13431;51.352;6.412;2023-08-01T14:12:56;7.97;;;4.30;;
25535;SDS011;13431;51.352;6.412;2023-08-01T14:15:24;8.35;;;4.32;;
25535;SDS011;13431;51.352;6.412;2023-08-01T14:17:51;9.10;;;3.78;;
25535;SDS011;13431;51.352;6.412;2023-08-01T14:20:19;10.10;;;4.45;;
25535;SDS011;13431;51.352;6.412;2023-08-01T14:22:47;7.63;;;4.53;;
25535;SDS011;13431;51.352;6.412;2023-08-01T14:25:14;7.80;;;3.35;;
25535;SDS011;13431;51.352;6.412;2023-08-01T14:27:41;8.85;;;4.07;;
25535;SDS011;13431;51.352;6.412;2023-08-01T14:30:09;10.23;;;4.20;;
25535;SDS011;13431;51.352;6.412;2023-08-01T14:32:36;7.53;;;3.65;;
25535;SDS011;13431;51.352;6.412;2023-08-01T14:35:05;8.25;;;3.80;;
25535;SDS011;13431;51.352;6.412;2023-08-01T14:37:33;6.90;;;3.28;;
25535;SDS011;13431;51.352;6.412;2023-08-01T14:40:00;9.63;;;4.05;;
25535;SDS011;13431;51.352;6.412;2023-08-01T14:42:28;7.70;;;3.65;;
25535;SDS011;13431;51.352;6.412;2023-08-01T14:44:55;5.70;;;3.53;;
25535;SDS011;13431;51.352;6.412;2023-08-01T14:47:24;6.50;;;3.63;;
25535;SDS011;13431;51.352;6.412;2023-08-01T14:49:51;8.10;;;3.88;;
25535;SDS011;13431;51.352;6.412;2023-08-01T14:52:19;6.78;;;3.10;;
25535;SDS011;13431;51.352;6.412;2023-08-01T14:54:52;5.25;;;3.00;;
25535;SDS011;13431;51.352;6.412;2023-08-01T14:57:19;6.00;;;2.75;;
25535;SDS011;13431;51.352;6.412;2023-08-01T14:59:46;6.78;;;3.08;;
25535;SDS011;13431;51.352;6.412;2023-08-01T15:02:14;4.97;;;3.00;;
25535;SDS011;13431;51.352;6.412;2023-08-01T15:04:42;6.53;;;3.30;;
25535;SDS011;13431;51.352;6.412;2023-08-01T15:07:10;5.57;;;3.10;;